Time;durP1;ratioP1;P1;durP2;ratioP2;P2;SDS_P1;SDS_P2;PMS_P1;PMS_P2;Temp;Humidity;BMP_temperature;BMP_pressure;BME280_temperature;BME280_humidity;BME280_pressure;Samples;Min_cycle;Max_cycle;Signal;HPM_P1;HPM_P2
2021/12/11 00:01:53;;;;;;;8.25;5.18;;;;;;;-145.06;0.00;60892.56;4713553;29;20499;-86
2021/12/11 00:04:35;;;;;;;8.43;5.35;;;;;;;-145.06;0.00;60892.56;4719535;29;20032;-87
2021/12/11 00:07:18;;;;;;;9.90;6.18;;;;;;;-145.06;0.00;60892.56;4723748;29;20111;-86
2021/12/11 00:10:16;;;;;;;9.05;5.78;;;;;;;-145.06;0.00;60892.56;4715093;29;20037;-86
2021/12/11 00:13:07;;;;;;;10.50;6.10;;;;;;;-145.06;0.00;60892.56;4743382;29;20079;-85
2021/12/11 00:15:47;;;;;;;9.05;5.68;;;;;;;-145.06;0.00;60892.56;4733011;29;20040;-86
2021/12/11 00:18:30;;;;;;;8.60;5.72;;;;;;;-145.06;0.00;60892.56;4729907;29;20044;-86
2021/12/11 00:21:15;;;;;;;9.43;5.70;;;;;;;-145.06;0.00;60892.56;4719818;29;20037;-86
2021/12/11 00:24:07;;;;;;;9.45;5.75;;;;;;;187.52;0.00;60892.56;4715632;29;20029;-87
2021/12/11 00:26:57;;;;;;;8.73;5.72;;;;;;;-145.06;0.00;60892.56;4716826;29;20037;-87
2021/12/11 00:29:37;;;;;;;9.40;6.00;;;;;;;-145.06;0.00;60892.56;4711350;29;20036;-86
2021/12/11 00:32:25;;;;;;;9.57;6.20;;;;;;;4.09;0.00;60892.56;4718742;29;20040;-86
2021/12/11 00:35:09;;;;;;;9.18;5.85;;;;;;;-145.06;0.00;60892.56;4717298;29;20037;-87
2021/12/11 00:37:49;;;;;;;12.52;7.57;;;;;;;-145.06;0.00;60892.56;4738507;29;20036;-86
2021/12/11 00:40:28;;;;;;;12.98;7.88;;;;;;;4.11;0.00;60892.56;4718378;29;20036;-87
2021/12/11 00:43:15;;;;;;;14.87;8.77;;;;;;;-145.06;0.00;60892.56;4717343;29;20028;-86
2021/12/11 00:45:56;;;;;;;13.35;8.32;;;;;;;-145.06;0.00;60892.56;4725532;29;20028;-87
2021/12/11 00:48:37;;;;;;;11.35;7.35;;;;;;;-145.06;0.00;60892.56;4716619;29;20025;-86
2021/12/11 00:51:20;;;;;;;11.70;7.72;;;;;;;-145.06;0.00;60892.56;4732825;29;20032;-86
2021/12/11 00:54:00;;;;;;;14.50;8.95;;;;;;;-145.06;0.00;60892.56;4721751;29;20040;-87
2021/12/11 00:56:40;;;;;;;11.70;7.38;;;;;;;-145.06;0.00;60892.56;4724358;29;20375;-86
2021/12/11 00:59:21;;;;;;;11.98;8.05;;;;;;;-145.06;0.00;60892.56;4715054;29;20044;-87
2021/12/11 01:02:03;;;;;;;12.38;8.52;;;;;;;4.19;0.00;60892.56;4717735;29;20028;-87
2021/12/11 01:04:42;;;;;;;13.02;8.45;;;;;;;-145.06;0.00;60892.56;4722558;29;20562;-86
2021/12/11 01:07:22;;;;;;;12.95;8.52;;;;;;;-145.06;0.00;60892.56;4738658;29;20032;-86
2021/12/11 01:10:10;;;;;;;13.10;8.57;;;;;;;-145.06;0.00;60892.56;4728636;29;20032;-85
2021/12/11 01:12:57;;;;;;;15.38;10.27;;;;;;;4.19;0.00;60892.56;4717521;29;20040;-86
2021/12/11 01:15:54;;;;;;;14.63;9.32;;;;;;;4.19;0.00;60892.56;4712364;29;20119;-86
2021/12/11 01:18:37;;;;;;;15.80;9.77;;;;;;;3.95;0.00;60892.56;4713840;29;20766;-86
2021/12/11 01:21:30;;;;;;;16.45;10.18;;;;;;;3.95;0.00;60892.56;4717880;29;20478;-87
2021/12/11 01:24:29;;;;;;;15.60;10.02;;;;;;;3.94;0.00;60892.56;4723997;29;20389;-87
2021/12/11 01:27:15;;;;;;;20.58;11.68;;;;;;;3.90;0.00;60892.56;4723094;29;20066;-88
2021/12/11 01:29:57;;;;;;;20.00;10.15;;;;;;;4.19;0.00;60892.56;4721761;29;20506;-87
2021/12/11 01:32:38;;;;;;;16.13;9.18;;;;;;;3.88;0.00;60892.56;4725474;29;20045;-88
2021/12/11 01:35:19;;;;;;;14.38;8.85;;;;;;;-145.06;0.00;60892.56;4725556;29;20120;-87
2021/12/11 01:38:16;;;;;;;13.02;8.48;;;;;;;-145.06;0.00;60892.56;4703195;29;20040;-87
2021/12/11 01:41:01;;;;;;;12.95;8.10;;;;;;;-145.06;0.00;60892.56;4723700;29;20036;-87
2021/12/11 01:43:41;;;;;;;10.48;6.72;;;;;;;-145.06;0.00;60892.56;4733990;29;20371;-87
2021/12/11 01:46:23;;;;;;;10.48;6.68;;;;;;;4.00;0.00;60892.56;4722522;29;20383;-87
2021/12/11 01:49:07;;;;;;;12.50;8.15;;;;;;;-145.06;0.00;60892.56;4717438;29;20248;-88
2021/12/11 01:51:59;;;;;;;13.77;9.02;;;;;;;-145.06;0.00;60892.56;4715133;29;20027;-86
2021/12/11 01:54:45;;;;;;;15.27;8.77;;;;;;;-145.06;0.00;60892.56;4716951;29;20033;-87
2021/12/11 01:57:30;;;;;;;19.50;11.15;;;;;;;-145.06;0.00;60892.56;4738787;29;20028;-88
2021/12/11 02:00:18;;;;;;;15.77;10.15;;;;;;;-145.06;0.00;60892.56;4724072;29;20063;-88
2021/12/11 02:03:02;;;;;;;18.95;10.93;;;;;;;-145.06;0.00;60892.56;4721812;29;20024;-87
2021/12/11 02:05:42;;;;;;;16.15;9.65;;;;;;;5.49;0.00;60892.56;4727023;29;20028;-88
2021/12/11 02:08:25;;;;;;;;;;;;;;;10.68;0.00;60892.56;4725750;29;20483;-88
2021/12/11 02:11:08;;;;;;;17.05;10.32;;;;;;;10.68;0.00;60892.56;4723236;29;19911;-87
2021/12/11 02:13:57;;;;;;;18.75;10.20;;;;;;;10.68;0.00;60892.56;4741867;29;20020;-88
2021/12/11 02:16:42;;;;;;;20.75;11.13;;;;;;;5.49;0.00;60892.56;4731185;29;20048;-87
2021/12/11 02:19:31;;;;;;;14.38;8.73;;;;;;;10.68;0.00;60892.56;4725611;29;20032;-87
2021/12/11 02:22:15;;;;;;;13.13;8.27;;;;;;;21.08;0.00;60892.56;4718239;29;20037;-86
2021/12/11 02:25:00;;;;;;;10.77;6.93;;;;;;;4.03;0.00;60892.56;4730331;29;20075;-87
2021/12/11 02:27:51;;;;;;;14.15;7.78;;;;;;;4.05;0.00;60892.56;4734363;29;20053;-88
2021/12/11 02:30:48;;;;;;;15.07;8.13;;;;;;;10.68;0.00;60892.56;4721625;29;20040;-87
2021/12/11 02:33:38;;;;;;;13.30;7.68;;;;;;;4.07;0.00;60892.56;4725521;29;20376;-88
2021/12/11 02:36:23;;;;;;;13.40;7.97;;;;;;;-145.06;0.00;60892.56;4727983;29;20032;-87
2021/12/11 02:39:38;;;;;;;13.23;7.90;;;;;;;187.52;0.00;60892.56;4723319;29;20044;-88
2021/12/11 02:42:16;;;;;;;13.40;8.07;;;;;;;10.68;0.00;60892.56;4652991;29;20038;-87
2021/12/11 02:45:13;;;;;;;14.03;8.20;;;;;;;4.14;0.00;60892.56;4724348;29;20067;-87
2021/12/11 02:48:14;;;;;;;14.40;8.10;;;;;;;4.16;0.00;60892.56;4731251;29;20681;-87
2021/12/11 02:51:04;;;;;;;12.27;7.25;;;;;;;-145.06;0.00;60892.56;4722975;29;20032;-87
2021/12/11 02:53:52;;;;;;;11.30;6.93;;;;;;;-145.06;0.00;60892.56;4725142;29;20381;-87
2021/12/11 02:56:36;;;;;;;13.93;8.25;;;;;;;-145.06;0.00;60892.56;4738091;29;20028;-86
2021/12/11 02:59:22;;;;;;;14.80;8.68;;;;;;;-145.06;0.00;60892.56;4724025;29;20514;-88
2021/12/11 03:02:11;;;;;;;15.00;9.20;;;;;;;-145.06;0.00;60892.56;4721275;29;20031;-87
2021/12/11 03:04:54;;;;;;;18.05;9.85;;;;;;;-145.06;0.00;60892.56;4734117;29;20028;-87
2021/12/11 03:07:38;;;;;;;16.58;9.65;;;;;;;-145.06;0.00;60892.56;4725885;29;20033;-87
2021/12/11 03:10:24;;;;;;;14.52;8.07;;;;;;;-145.06;0.00;60892.56;4737658;29;20035;-88
2021/12/11 03:13:04;;;;;;;16.33;9.25;;;;;;;-145.06;0.00;60892.56;4733093;29;20059;-87
2021/12/11 03:15:43;;;;;;;;;;;;;;;-145.06;0.00;60892.56;4726304;29;20032;-87
2021/12/11 03:18:22;;;;;;;17.67;9.03;;;;;;;-145.06;0.00;60892.56;4738160;29;19910;-87
2021/12/11 03:21:03;;;;;;;16.25;8.38;;;;;;;21.08;0.00;60892.56;4735523;29;20029;-87
2021/12/11 03:23:42;;;;;;;16.63;9.57;;;;;;;4.19;0.00;60892.56;4714406;29;20672;-87
2021/12/11 03:26:23;;;;;;;15.65;9.20;;;;;;;10.68;0.00;60892.56;4719886;29;20036;-86
2021/12/11 03:29:03;;;;;;;11.95;7.07;;;;;;;-145.06;0.00;60892.56;4726494;29;20067;-88
2021/12/11 03:31:43;;;;;;;14.57;8.10;;;;;;;-145.06;0.00;60892.56;4715301;29;20033;-88
2021/12/11 03:34:23;;;;;;;;;;;;;;;-145.06;0.00;60892.56;4714757;29;20036;-86
2021/12/11 03:37:06;;;;;;;10.32;6.72;;;;;;;-145.06;0.00;60892.56;4726049;29;19970;-87
2021/12/11 03:39:49;;;;;;;10.82;6.65;;;;;;;-145.06;0.00;60892.56;4727057;29;20059;-86
2021/12/11 03:42:32;;;;;;;11.45;6.93;;;;;;;-145.06;0.00;60892.56;4729556;29;20036;-87
2021/12/11 03:45:17;;;;;;;11.10;6.85;;;;;;;-145.06;0.00;60892.56;4724959;29;20037;-87
2021/12/11 03:48:14;;;;;;;11.55;6.80;;;;;;;-145.06;0.00;60892.56;4722089;29;20044;-87
2021/12/11 03:50:55;;;;;;;12.70;7.45;;;;;;;-145.06;0.00;60892.56;4726022;29;20036;-88
2021/12/11 03:53:33;;;;;;;;;;;;;;;-145.06;0.00;60892.56;4722910;29;20040;-88
2021/12/11 03:56:16;;;;;;;11.10;6.53;;;;;;;-145.06;0.00;60892.56;4725950;29;20532;-86
2021/12/11 03:58:55;;;;;;;13.05;7.45;;;;;;;-145.06;0.00;60892.56;4732329;29;20430;-87
2021/12/11 04:01:42;;;;;;;14.07;8.18;;;;;;;-145.06;0.00;60892.56;4733047;29;20372;-88
2021/12/11 04:04:27;;;;;;;14.57;8.93;;;;;;;-145.06;0.00;60892.56;4726907;29;20040;-86
2021/12/11 04:07:10;;;;;;;14.93;8.60;;;;;;;-145.06;0.00;60892.56;4726970;29;20040;-87
2021/12/11 04:09:49;;;;;;;14.65;8.43;;;;;;;4.84;0.00;60892.56;4730129;29;20029;-87
2021/12/11 04:12:28;;;;;;;14.95;8.10;;;;;;;-145.06;0.00;60892.56;4726885;29;20391;-87
2021/12/11 04:15:09;;;;;;;14.63;8.67;;;;;;;5.49;0.00;60892.56;4722959;29;20032;-86
2021/12/11 04:17:48;;;;;;;11.75;7.20;;;;;;;-145.06;0.00;60892.56;4738994;29;20111;-87
2021/12/11 04:20:29;;;;;;;13.93;8.17;;;;;;;4.84;0.00;60892.56;4722870;29;20592;-86
2021/12/11 04:23:11;;;;;;;12.82;8.02;;;;;;;5.49;0.00;60892.56;4728731;29;20368;-87
2021/12/11 04:25:54;;;;;;;17.15;9.63;;;;;;;-145.06;0.00;60892.56;4719631;29;20032;-87
2021/12/11 04:28:36;;;;;;;15.93;8.90;;;;;;;10.68;0.00;60892.56;4731105;29;20032;-86
2021/12/11 04:31:20;;;;;;;14.07;7.78;;;;;;;10.68;0.00;60892.56;4721788;29;20374;-88
2021/12/11 04:34:05;;;;;;;13.27;7.57;;;;;;;187.52;0.00;60892.56;4726141;29;20024;-88
2021/12/11 04:36:52;;;;;;;16.52;9.10;;;;;;;5.41;0.00;60892.56;4732078;29;20036;-87
2021/12/11 04:39:36;;;;;;;14.88;8.82;;;;;;;10.68;0.00;60892.56;4721481;29;20044;-87
2021/12/11 04:42:35;;;;;;;12.48;7.80;;;;;;;21.08;0.00;60892.56;4732697;29;20103;-88
2021/12/11 04:45:41;;;;;;;13.38;7.28;;;;;;;-145.06;0.00;60892.56;4721525;29;20041;-87
2021/12/11 04:48:44;;;;;;;13.32;7.10;;;;;;;-145.06;0.00;60892.56;4716442;29;20041;-86
2021/12/11 04:52:03;;;;;;;15.32;8.45;;;;;;;-145.06;0.00;60892.56;4726511;29;20580;-88
2021/12/11 04:54:49;;;;;;;12.07;7.15;;;;;;;4.84;0.00;60892.56;4726281;29;20036;-86
2021/12/11 05:07:01;;;;;;;13.18;7.57;;;;;;;-145.06;0.00;60892.56;4719645;29;20068;-87
2021/12/11 05:09:54;;;;;;;13.90;7.43;;;;;;;5.49;0.00;60892.56;4714402;29;20044;-87
2021/12/11 05:15:23;;;;;;;13.27;7.90;;;;;;;-145.06;0.00;60892.56;4720389;29;20041;-87
2021/12/11 05:18:06;;;;;;;12.27;6.90;;;;;;;187.52;0.00;60892.56;4718960;29;20036;-87
2021/12/11 05:20:50;;;;;;;13.45;7.85;;;;;;;21.08;0.00;60892.56;4726551;29;20040;-87
2021/12/11 05:23:29;;;;;;;13.10;7.50;;;;;;;10.68;0.00;60892.56;4729197;29;20028;-87
2021/12/11 05:26:09;;;;;;;11.38;7.07;;;;;;;10.68;0.00;60892.56;4710905;29;20084;-87
2021/12/11 05:28:48;;;;;;;12.83;7.10;;;;;;;4.39;0.00;60892.56;4718342;29;20479;-88
2021/12/11 05:31:27;;;;;;;11.18;6.43;;;;;;;10.68;0.00;60892.56;4729291;29;20269;-87
2021/12/11 05:34:07;;;;;;;11.68;6.43;;;;;;;5.49;0.00;60892.56;4725095;29;20064;-87
2021/12/11 05:36:47;;;;;;;10.32;6.07;;;;;;;10.68;0.00;60892.56;4738175;29;20111;-87
2021/12/11 05:39:26;;;;;;;8.75;5.53;;;;;;;5.49;0.00;60892.56;4741667;29;20498;-87
2021/12/11 05:42:06;;;;;;;10.50;6.10;;;;;;;-145.06;0.00;60892.56;4743608;29;20044;-88
2021/12/11 05:44:45;;;;;;;10.38;5.65;;;;;;;-145.06;0.00;60892.56;4725387;29;20143;-87
2021/12/11 05:47:24;;;;;;;11.85;5.88;;;;;;;-145.06;0.00;60892.56;4731601;29;20036;-87
2021/12/11 05:50:12;;;;;;;11.27;6.45;;;;;;;-145.06;0.00;60892.56;4724329;29;20074;-87
2021/12/11 05:52:51;;;;;;;9.02;5.68;;;;;;;-145.06;0.00;60892.56;4725168;29;20032;-87
2021/12/11 05:55:33;;;;;;;9.30;5.72;;;;;;;-145.06;0.00;60892.56;4719326;29;20115;-87
2021/12/11 05:58:15;;;;;;;11.38;6.07;;;;;;;-145.06;0.00;60892.56;4738554;29;20044;-88
2021/12/11 06:00:54;;;;;;;12.18;7.00;;;;;;;-145.06;0.00;60892.56;4738695;29;20036;-88
2021/12/11 06:03:37;;;;;;;14.13;8.13;;;;;;;4.68;0.00;60892.56;4735778;29;20036;-87
2021/12/11 06:06:16;;;;;;;13.93;7.63;;;;;;;-145.06;0.00;60892.56;4717796;29;20276;-87
2021/12/11 06:08:55;;;;;;;16.00;8.70;;;;;;;-145.06;0.00;60892.56;4722946;29;20036;-88
2021/12/11 06:11:35;;;;;;;14.85;8.30;;;;;;;-145.06;0.00;60892.56;4732515;29;20028;-88
2021/12/11 06:14:19;;;;;;;16.67;9.02;;;;;;;-145.06;0.00;60892.56;4730097;29;20041;-88
2021/12/11 06:17:00;;;;;;;17.70;10.00;;;;;;;-145.06;0.00;60892.56;4740062;29;20036;-88
2021/12/11 06:19:42;;;;;;;14.65;8.40;;;;;;;-145.06;0.00;60892.56;4732478;29;20375;-86
2021/12/11 06:22:26;;;;;;;13.98;7.70;;;;;;;-145.06;0.00;60892.56;4717003;29;20111;-87
2021/12/11 06:25:12;;;;;;;13.63;7.72;;;;;;;-145.06;0.00;60892.56;4718572;29;20032;-87
2021/12/11 06:27:51;;;;;;;13.15;7.93;;;;;;;-145.06;0.00;60892.56;4730914;29;20035;-88
2021/12/11 06:30:31;;;;;;;12.15;7.30;;;;;;;-145.06;0.00;60892.56;4743042;29;20478;-88
2021/12/11 06:33:10;;;;;;;15.20;8.23;;;;;;;-145.06;0.00;60892.56;4730837;29;20546;-87
2021/12/11 06:35:57;;;;;;;14.48;8.10;;;;;;;-145.06;0.00;60892.56;4728599;29;20036;-86
2021/12/11 06:38:39;;;;;;;16.58;9.23;;;;;;;-145.06;0.00;60892.56;4724310;29;20028;-88
2021/12/11 06:41:22;;;;;;;17.30;9.00;;;;;;;-145.06;0.00;60892.56;4735429;29;20036;-87
2021/12/11 06:44:03;;;;;;;15.05;9.35;;;;;;;-145.06;0.00;60892.56;4724399;29;20491;-87
2021/12/11 06:46:43;;;;;;;14.77;8.25;;;;;;;-145.06;0.00;60892.56;4727804;29;20440;-88
2021/12/11 06:49:22;;;;;;;15.10;8.57;;;;;;;-145.06;0.00;60892.56;4730675;29;20044;-88
2021/12/11 06:52:04;;;;;;;13.88;7.72;;;;;;;-145.06;0.00;60892.56;4731217;29;20040;-87
2021/12/11 06:54:44;;;;;;;13.32;6.88;;;;;;;-145.06;0.00;60892.56;4728931;29;20478;-88
2021/12/11 06:57:24;;;;;;;12.75;7.25;;;;;;;-145.06;0.00;60892.56;4732767;29;20491;-88
2021/12/11 07:00:04;;;;;;;14.95;7.22;;;;;;;-145.06;0.00;60892.56;4722146;29;20080;-88
2021/12/11 07:02:44;;;;;;;12.35;7.15;;;;;;;-145.06;0.00;60892.56;4717538;29;20032;-88
2021/12/11 07:05:23;;;;;;;14.63;7.55;;;;;;;-145.06;0.00;60892.56;4737589;29;20036;-88
2021/12/11 07:08:06;;;;;;;13.98;7.32;;;;;;;-145.06;0.00;60892.56;4711990;29;20435;-89
2021/12/11 07:10:46;;;;;;;13.25;7.05;;;;;;;-145.06;0.00;60892.56;4729091;29;20032;-88
2021/12/11 07:13:25;;;;;;;10.93;6.32;;;;;;;-145.06;0.00;60892.56;4728593;29;20032;-88
2021/12/11 07:16:05;;;;;;;13.88;7.28;;;;;;;-145.06;0.00;60892.56;4721485;29;20043;-89
2021/12/11 07:18:44;;;;;;;11.02;5.85;;;;;;;-145.06;0.00;60892.56;4723086;29;20036;-87
2021/12/11 07:21:24;;;;;;;12.20;6.32;;;;;;;-145.06;0.00;60892.56;4725774;29;20403;-87
2021/12/11 07:24:05;;;;;;;11.82;6.22;;;;;;;-145.06;0.00;60892.56;4711646;29;20040;-87
2021/12/11 07:26:44;;;;;;;10.45;6.18;;;;;;;-145.06;0.00;60892.56;4721042;29;20036;-88
2021/12/11 07:29:23;;;;;;;11.70;6.37;;;;;;;-145.06;0.00;60892.56;4721333;29;20048;-87
2021/12/11 07:32:05;;;;;;;15.40;7.77;;;;;;;-145.06;0.00;60892.56;4720865;29;20289;-88
2021/12/11 07:34:45;;;;;;;12.10;6.93;;;;;;;-145.06;0.00;60892.56;4712386;29;20036;-88
2021/12/11 07:37:24;;;;;;;10.70;6.18;;;;;;;-145.06;0.00;60892.56;4734589;29;20037;-88
2021/12/11 07:40:09;;;;;;;13.20;6.90;;;;;;;-145.06;0.00;60892.56;4723460;29;20355;-88
2021/12/11 07:42:48;;;;;;;12.50;7.38;;;;;;;-145.06;0.00;60892.56;4722354;29;20310;-88
2021/12/11 07:45:28;;;;;;;11.75;6.28;;;;;;;-145.06;0.00;60892.56;4725299;29;20037;-87
2021/12/11 07:48:07;;;;;;;13.43;6.97;;;;;;;-145.06;0.00;60892.56;4717881;29;20368;-88
2021/12/11 07:50:47;;;;;;;13.52;7.85;;;;;;;-145.06;0.00;60892.56;4717253;29;20479;-87
2021/12/11 07:53:26;;;;;;;10.93;6.53;;;;;;;-145.06;0.00;60892.56;4723185;29;20041;-87
2021/12/11 07:56:05;;;;;;;11.75;6.43;;;;;;;-145.06;0.00;60892.56;4726732;29;20025;-88
2021/12/11 07:58:46;;;;;;;10.15;5.72;;;;;;;-145.06;0.00;60892.56;4728818;29;20036;-88
2021/12/11 08:01:25;;;;;;;;;;;;;;;-145.06;0.00;60892.56;4726546;29;20036;-87
2021/12/11 08:04:05;;;;;;;9.45;5.50;;;;;;;-145.06;0.00;60892.56;4722347;29;19923;-88
2021/12/11 08:06:44;;;;;;;;;;;;;;;-145.06;0.00;60892.56;4715067;29;20474;-88
2021/12/11 08:09:25;;;;;;;9.27;4.88;;;;;;;-145.06;0.00;60892.56;4716602;29;19994;-88
2021/12/11 08:12:06;;;;;;;9.90;5.10;;;;;;;-145.06;0.00;60892.56;4719953;29;20147;-87
2021/12/11 08:14:45;;;;;;;10.32;5.85;;;;;;;-145.06;0.00;60892.56;4716175;29;20041;-88
2021/12/11 08:17:24;;;;;;;10.02;5.88;;;;;;;-145.06;0.00;60892.56;4737818;29;20466;-87
2021/12/11 08:20:07;;;;;;;10.70;5.83;;;;;;;-145.06;0.00;60892.56;4718747;29;20388;-87
2021/12/11 08:22:46;;;;;;;9.93;5.82;;;;;;;-145.06;0.00;60892.56;4722258;29;20380;-88
2021/12/11 08:25:28;;;;;;;11.87;6.73;;;;;;;-145.06;0.00;60892.56;4740889;29;20040;-87
2021/12/11 08:28:09;;;;;;;8.77;5.57;;;;;;;-145.06;0.00;60892.56;4712172;29;20041;-87
2021/12/11 08:30:50;;;;;;;8.35;5.15;;;;;;;-145.06;0.00;60892.56;4717341;29;20471;-87
2021/12/11 08:33:29;;;;;;;8.93;5.43;;;;;;;-145.06;0.00;60892.56;4730611;29;20483;-89
2021/12/11 08:36:08;;;;;;;7.80;4.90;;;;;;;-145.06;0.00;60892.56;4717299;29;20045;-87
2021/12/11 08:38:48;;;;;;;;;;;;;;;-145.06;0.00;60892.56;4723107;29;20730;-87
2021/12/11 08:41:29;;;;;;;6.25;3.95;;;;;;;-145.06;0.00;60892.56;4713542;29;20455;-88
2021/12/11 08:44:13;;;;;;;6.18;3.85;;;;;;;-145.06;0.00;60892.56;4706688;29;20041;-87
2021/12/11 08:46:57;;;;;;;6.20;3.90;;;;;;;5.49;0.00;60892.56;4724980;29;20036;-88
2021/12/11 08:49:39;;;;;;;7.22;4.32;;;;;;;-145.06;0.00;60892.56;4732290;29;20024;-87
2021/12/11 08:52:33;;;;;;;6.47;3.90;;;;;;;-145.06;0.00;60892.56;4730343;29;20395;-87
2021/12/11 08:55:17;;;;;;;6.72;4.07;;;;;;;5.05;0.00;60892.56;4718676;29;20029;-88
2021/12/11 08:57:58;;;;;;;6.70;4.35;;;;;;;-145.06;0.00;60892.56;4722035;29;20506;-87
2021/12/11 09:00:54;;;;;;;7.30;4.55;;;;;;;-145.06;0.00;60892.56;4714591;29;20036;-88
2021/12/11 09:03:46;;;;;;;7.00;4.20;;;;;;;-145.06;0.00;60892.56;4717978;29;20494;-88
2021/12/11 09:06:28;;;;;;;7.03;4.15;;;;;;;-145.06;0.00;60892.56;4727690;29;20032;-86
2021/12/11 09:09:41;;;;;;;6.70;3.80;;;;;;;-145.06;0.00;60892.56;4717432;29;20032;-87
2021/12/11 09:12:34;;;;;;;6.68;4.20;;;;;;;-145.06;0.00;60892.56;4736103;29;20032;-88
2021/12/11 09:15:24;;;;;;;5.50;3.70;;;;;;;-145.06;0.00;60892.56;4719663;29;20383;-88
2021/12/11 09:18:11;;;;;;;6.82;4.72;;;;;;;-145.06;0.00;60892.56;4727635;29;20498;-88
2021/12/11 09:20:56;;;;;;;6.88;4.57;;;;;;;-145.06;0.00;60892.56;4728385;29;20064;-87
2021/12/11 09:23:45;;;;;;;7.45;4.80;;;;;;;-145.06;0.00;60892.56;4718719;29;20028;-87
2021/12/11 09:26:30;;;;;;;6.68;4.63;;;;;;;-145.06;0.00;60892.56;4727330;29;20068;-87
2021/12/11 09:29:31;;;;;;;6.75;4.45;;;;;;;-145.06;0.00;60892.56;4712817;29;20028;-88
2021/12/11 09:32:26;;;;;;;8.13;5.05;;;;;;;-145.06;0.00;60892.56;4714567;29;20763;-87
2021/12/11 09:35:21;;;;;;;8.93;5.38;;;;;;;-145.06;0.00;60892.56;4718280;29;20048;-88
2021/12/11 09:38:06;;;;;;;8.85;5.32;;;;;;;-145.06;0.00;60892.56;4735210;29;20044;-89
2021/12/11 09:40:52;;;;;;;9.65;5.97;;;;;;;-145.06;0.00;60892.56;4737884;29;20043;-88
2021/12/11 09:43:40;;;;;;;10.18;6.22;;;;;;;-145.06;0.00;60892.56;4714967;29;20031;-87
2021/12/11 09:46:25;;;;;;;13.30;6.65;;;;;;;-145.06;0.00;60892.56;4735776;29;20032;-88
2021/12/11 09:49:08;;;;;;;11.70;7.15;;;;;;;-145.06;0.00;60892.56;4716288;29;20478;-86
2021/12/11 09:51:58;;;;;;;10.73;6.70;;;;;;;-145.06;0.00;60892.56;4717282;29;20052;-87
2021/12/11 09:54:37;;;;;;;;;;;;;;;-145.06;0.00;60892.56;4735217;29;21121;-89
2021/12/11 09:57:22;;;;;;;10.85;7.03;;;;;;;-145.06;0.00;60892.56;4743572;29;19919;-88
2021/12/11 10:00:10;;;;;;;11.45;6.50;;;;;;;-145.06;0.00;60892.56;4730156;29;20127;-88
2021/12/11 10:02:50;;;;;;;12.30;7.10;;;;;;;-145.06;0.00;60892.56;4719993;29;20032;-86
2021/12/11 10:05:45;;;;;;;11.95;7.65;;;;;;;-145.06;0.00;60892.56;4731212;29;20882;-88
2021/12/11 10:08:35;;;;;;;16.77;8.82;;;;;;;-145.06;0.00;60892.56;4710706;29;20052;-88
2021/12/11 10:11:30;;;;;;;19.33;9.80;;;;;;;-145.06;0.00;60892.56;4720488;29;20383;-86
2021/12/11 10:14:12;;;;;;;18.23;9.50;;;;;;;-145.06;0.00;60892.56;4717336;29;20035;-88
2021/12/11 10:16:55;;;;;;;16.25;8.82;;;;;;;-145.06;0.00;60892.56;4716700;29;20045;-89
2021/12/11 10:19:36;;;;;;;13.85;8.48;;;;;;;-145.06;0.00;60892.56;4726246;29;20032;-89
2021/12/11 10:22:22;;;;;;;10.55;7.00;;;;;;;-145.06;0.00;60892.56;4726960;29;20671;-87
2021/12/11 10:25:03;;;;;;;12.10;7.03;;;;;;;-145.06;0.00;60892.56;4737232;29;20087;-88
2021/12/11 10:27:43;;;;;;;9.73;5.82;;;;;;;-145.06;0.00;60892.56;4715747;29;20067;-89
2021/12/11 10:30:24;;;;;;;8.52;5.60;;;;;;;-145.06;0.00;60892.56;4729545;29;20743;-87
2021/12/11 10:33:10;;;;;;;9.48;5.00;;;;;;;-145.06;0.00;60892.56;4712850;29;20141;-88
2021/12/11 10:35:52;;;;;;;6.88;5.03;;;;;;;-145.06;0.00;60892.56;4718908;29;20123;-87
2021/12/11 10:38:38;;;;;;;7.47;4.68;;;;;;;-145.06;0.00;60892.56;4730725;29;20032;-88
2021/12/11 10:41:19;;;;;;;7.25;4.55;;;;;;;-145.06;0.00;60892.56;4713651;29;20499;-87
2021/12/11 10:44:06;;;;;;;7.78;4.10;;;;;;;-145.06;0.00;60892.56;4723187;29;20032;-89
2021/12/11 10:46:59;;;;;;;6.15;3.75;;;;;;;-145.06;0.00;60892.56;4723260;29;20106;-88
2021/12/11 10:49:39;;;;;;;5.82;3.38;;;;;;;-145.06;0.00;60892.56;4717192;29;20059;-88
2021/12/11 10:52:24;;;;;;;5.22;3.17;;;;;;;-145.06;0.00;60892.56;4728021;29;20032;-87
2021/12/11 10:55:07;;;;;;;4.88;3.45;;;;;;;-145.06;0.00;60892.56;4734011;29;20068;-88
2021/12/11 10:57:50;;;;;;;7.50;3.88;;;;;;;-145.06;0.00;60892.56;4714143;29;20064;-88
2021/12/11 11:00:38;;;;;;;8.80;3.95;;;;;;;-145.06;0.00;60892.56;4711835;29;20044;-88
2021/12/11 11:03:17;;;;;;;6.22;3.40;;;;;;;-145.06;0.00;60892.56;4727493;29;20037;-89
2021/12/11 11:05:56;;;;;;;5.20;3.10;;;;;;;-145.06;0.00;60892.56;4720226;29;20043;-87
2021/12/11 11:08:37;;;;;;;6.88;3.38;;;;;;;-145.06;0.00;60892.56;4709948;29;20071;-88
2021/12/11 11:11:23;;;;;;;5.68;3.10;;;;;;;-145.06;0.00;60892.56;4732037;29;20032;-88
2021/12/11 11:14:04;;;;;;;4.30;2.70;;;;;;;-145.06;0.00;60892.56;4713252;29;20044;-87
2021/12/11 11:16:51;;;;;;;7.30;2.78;;;;;;;-145.06;0.00;60892.56;4728342;29;20040;-87
2021/12/11 11:19:34;;;;;;;5.03;2.60;;;;;;;-145.06;0.00;60892.56;4716655;29;20424;-88
2021/12/11 11:22:19;;;;;;;5.90;2.33;;;;;;;-145.06;0.00;60892.56;4710765;29;20044;-87
2021/12/11 11:25:17;;;;;;;5.43;2.30;;;;;;;-145.06;0.00;60892.56;4714600;29;20041;-87
2021/12/11 11:27:59;;;;;;;3.78;2.10;;;;;;;-145.06;0.00;60892.56;4723860;29;20725;-89
2021/12/11 11:30:45;;;;;;;5.00;2.10;;;;;;;-145.06;0.00;60892.56;4713193;29;20044;-87
2021/12/11 11:33:26;;;;;;;7.57;2.33;;;;;;;-145.06;0.00;60892.56;4721547;29;20041;-87
2021/12/11 11:36:09;;;;;;;5.13;2.10;;;;;;;-145.06;0.00;60892.56;4724452;29;20048;-86
2021/12/11 11:38:52;;;;;;;4.13;2.00;;;;;;;-145.06;0.00;60892.56;4722235;29;20371;-87
2021/12/11 11:41:35;;;;;;;5.68;2.20;;;;;;;-145.06;0.00;60892.56;4714656;29;20040;-86
2021/12/11 11:44:15;;;;;;;4.65;2.40;;;;;;;-145.06;0.00;60892.56;4713528;29;20032;-87
2021/12/11 11:46:58;;;;;;;5.50;2.28;;;;;;;-145.06;0.00;60892.56;4736747;29;20076;-87
2021/12/11 11:49:37;;;;;;;3.55;2.05;;;;;;;-145.06;0.00;60892.56;4728865;29;20032;-87
2021/12/11 11:52:19;;;;;;;6.15;2.42;;;;;;;-145.06;0.00;60892.56;4728078;29;20470;-87
2021/12/11 11:55:01;;;;;;;4.78;2.05;;;;;;;-145.06;0.00;60892.56;4725287;29;20040;-87
2021/12/11 11:57:48;;;;;;;3.78;1.75;;;;;;;-145.06;0.00;60892.56;4718511;29;20032;-86
2021/12/11 12:00:41;;;;;;;5.47;2.10;;;;;;;-145.06;0.00;60892.56;4718689;29;20028;-87
2021/12/11 12:03:23;;;;;;;4.05;2.10;;;;;;;-145.06;0.00;60892.56;4719037;29;20114;-87
2021/12/11 12:06:09;;;;;;;4.07;1.90;;;;;;;-145.06;0.00;60892.56;4715984;29;20538;-87
2021/12/11 12:08:50;;;;;;;5.00;1.90;;;;;;;-145.06;0.00;60892.56;4725904;29;20767;-87
2021/12/11 12:11:33;;;;;;;9.80;2.30;;;;;;;-145.06;0.00;60892.56;4727849;29;20036;-87
2021/12/11 12:14:18;;;;;;;4.18;1.60;;;;;;;-145.06;0.00;60892.56;4707714;29;20024;-85
2021/12/11 12:16:58;;;;;;;4.50;2.25;;;;;;;-145.06;0.00;60892.56;4729965;29;20513;-88
2021/12/11 12:19:37;;;;;;;5.63;2.00;;;;;;;-145.06;0.00;60892.56;4734897;29;20048;-88
2021/12/11 12:22:18;;;;;;;3.10;1.60;;;;;;;-145.06;0.00;60892.56;4716209;29;20028;-88
2021/12/11 12:24:59;;;;;;;5.28;1.90;;;;;;;10.68;0.00;60892.56;4730884;29;20127;-87
2021/12/11 12:27:42;;;;;;;7.70;1.90;;;;;;;-145.06;0.00;60892.56;4728618;29;20036;-88
2021/12/11 12:30:27;;;;;;;4.22;1.55;;;;;;;-145.06;0.00;60892.56;4708359;29;20496;-88
2021/12/11 12:33:09;;;;;;;4.65;1.65;;;;;;;-145.06;0.00;60892.56;4726115;29;20036;-87
2021/12/11 12:35:48;;;;;;;4.88;2.13;;;;;;;-145.06;0.00;60892.56;4711107;29;20041;-88
2021/12/11 12:38:31;;;;;;;4.65;2.05;;;;;;;-145.06;0.00;60892.56;4714091;29;20430;-88
2021/12/11 12:41:16;;;;;;;3.60;2.00;;;;;;;-145.06;0.00;60892.56;4715797;29;20044;-88
2021/12/11 12:47:00;;;;;;;4.85;2.15;;;;;;;-145.06;0.00;60892.56;4722821;29;20033;-87
2021/12/11 12:49:45;;;;;;;5.70;2.45;;;;;;;-145.06;0.00;60892.56;4704640;29;20033;-87
2021/12/11 12:52:42;;;;;;;5.20;2.50;;;;;;;-145.06;0.00;60892.56;4720231;29;20036;-88
2021/12/11 12:55:28;;;;;;;5.78;2.35;;;;;;;-145.06;0.00;60892.56;4710111;29;20576;-87
2021/12/11 12:58:15;;;;;;;5.45;2.33;;;;;;;-145.06;0.00;60892.56;4721152;29;20147;-88
2021/12/11 13:01:09;;;;;;;8.75;2.22;;;;;;;-145.06;0.00;60892.56;4719437;29;20032;-87